createdAt,value
2019-02-04T00:02:35.783Z,15.40
2019-02-04T00:05:17.854Z,15.90
2019-02-04T00:07:59.672Z,15.43
2019-02-04T00:10:41.322Z,15.97
2019-02-04T00:13:23.358Z,15.43
2019-02-04T00:16:06.386Z,15.90
2019-02-04T00:18:48.201Z,16.20
2019-02-04T00:21:30.723Z,16.10
2019-02-04T00:24:12.514Z,15.97
2019-02-04T00:26:54.681Z,15.43
2019-02-04T00:29:36.816Z,15.10
2019-02-04T00:32:20.824Z,13.90
2019-02-04T00:35:02.588Z,16.00
2019-02-04T00:37:44.476Z,14.63
2019-02-04T00:40:26.450Z,14.50
2019-02-04T00:43:08.592Z,13.93
2019-02-04T00:45:50.868Z,13.43
2019-02-04T00:48:33.215Z,12.50
2019-02-04T00:51:14.906Z,13.87
2019-02-04T00:53:56.984Z,12.87
2019-02-04T00:56:39.247Z,12.27
2019-02-04T00:59:21.147Z,12.97
2019-02-04T01:02:03.071Z,12.67
2019-02-04T01:04:46.415Z,12.83
2019-02-04T01:07:28.482Z,12.37
2019-02-04T01:10:10.624Z,12.97
2019-02-04T01:12:53.106Z,13.67
2019-02-04T01:15:35.802Z,14.50
2019-02-04T01:18:17.889Z,13.70
2019-02-04T01:21:00.887Z,12.70
2019-02-04T01:23:42.847Z,13.80
2019-02-04T01:26:24.858Z,14.30
2019-02-04T01:29:06.786Z,13.43
2019-02-04T01:31:48.834Z,13.33
2019-02-04T01:34:31.561Z,13.70
2019-02-04T01:37:13.761Z,13.57
2019-02-04T01:39:57.099Z,14.33
2019-02-04T01:42:39.239Z,14.03
2019-02-04T01:45:21.415Z,13.77
2019-02-04T01:48:03.494Z,13.93
2019-02-04T01:50:45.668Z,13.37
2019-02-04T01:56:29.249Z,14.00
2019-02-04T01:59:11.318Z,13.60
2019-02-04T02:01:53.617Z,13.57
2019-02-04T02:04:35.724Z,13.07
2019-02-04T02:07:17.953Z,13.63
2019-02-04T02:09:48.833Z,13.70
2019-02-04T02:12:38.118Z,14.63
2019-02-04T02:15:19.734Z,14.60
2019-02-04T02:18:03.379Z,14.97
2019-02-04T02:20:45.854Z,14.97
2019-02-04T02:23:27.478Z,15.00
2019-02-04T02:26:09.559Z,14.97
2019-02-04T02:28:51.470Z,16.13
2019-02-04T02:31:33.595Z,14.67
2019-02-04T02:34:15.690Z,15.07
2019-02-04T02:36:57.552Z,14.97
2019-02-04T02:39:28.030Z,15.50
2019-02-04T02:42:17.276Z,17.63
2019-02-04T02:44:59.362Z,16.07
2019-02-04T02:47:41.631Z,18.03
2019-02-04T02:50:23.526Z,16.87
2019-02-04T02:52:53.764Z,16.80
2019-02-04T02:55:35.615Z,17.57
2019-02-04T02:58:17.807Z,17.07
2019-02-04T03:00:59.980Z,17.47
2019-02-04T03:03:43.208Z,18.43
2019-02-04T03:06:25.132Z,18.17
2019-02-04T03:08:55.458Z,18.80
2019-02-04T03:11:37.194Z,17.77
2019-02-04T03:14:19.027Z,17.93
2019-02-04T03:17:01.066Z,18.20
2019-02-04T03:19:43.242Z,17.73
2019-02-04T03:22:25.587Z,18.77
2019-02-04T03:24:55.836Z,17.07
2019-02-04T03:27:45.175Z,18.47
2019-02-04T03:30:27.111Z,18.33
2019-02-04T03:33:10.348Z,19.07
2019-02-04T03:35:52.556Z,17.90
2019-02-04T03:38:34.135Z,18.63
2019-02-04T03:41:17.117Z,17.90
2019-02-04T03:43:59.198Z,17.90
2019-02-04T03:46:41.283Z,18.33
2019-02-04T03:49:23.129Z,18.67
2019-02-04T03:52:05.054Z,17.57
2019-02-04T03:54:47.004Z,18.57
2019-02-04T03:57:29.155Z,19.43
2019-02-04T03:59:59.421Z,18.77
2019-02-04T04:02:41.799Z,18.53
2019-02-04T04:05:24.118Z,17.50
2019-02-04T04:08:06.578Z,17.47
2019-02-04T04:10:49.035Z,18.73
2019-02-04T04:13:30.850Z,17.87
2019-02-04T04:16:01.275Z,18.30
2019-02-04T04:18:53.359Z,17.77
2019-02-04T04:21:39.578Z,18.23
2019-02-04T04:24:21.398Z,18.60
2019-02-04T04:27:03.662Z,17.80
2019-02-04T04:29:46.002Z,18.00
2019-02-04T04:32:30.153Z,17.97
2019-02-04T04:35:00.540Z,18.57
2019-02-04T04:37:50.020Z,18.57
2019-02-04T04:40:32.079Z,17.33
2019-02-04T04:43:02.444Z,17.20
2019-02-04T04:46:12.566Z,17.83
2019-02-04T04:48:55.745Z,17.20
2019-02-04T04:51:37.702Z,18.23
2019-02-04T04:54:19.975Z,19.23
2019-02-04T04:57:02.372Z,17.70
2019-02-04T04:59:44.508Z,18.37
2019-02-04T05:02:26.714Z,17.53
2019-02-04T05:05:08.803Z,17.43
2019-02-04T05:07:51.197Z,18.20
2019-02-04T05:10:33.153Z,17.27
2019-02-04T05:13:03.894Z,18.20
2019-02-04T05:15:53.186Z,17.90
2019-02-04T05:18:38.334Z,18.27
2019-02-04T05:21:06.737Z,18.83
2019-02-04T05:23:56.449Z,19.37
2019-02-04T05:26:38.099Z,18.83
2019-02-04T05:29:08.457Z,19.90
2019-02-04T05:31:57.710Z,18.80
2019-02-04T05:34:39.291Z,19.27
2019-02-04T05:37:09.569Z,18.93
2019-02-04T05:39:51.939Z,19.73
2019-02-04T05:42:34.687Z,19.23
2019-02-04T05:45:07.743Z,20.67
2019-02-04T05:47:57.053Z,19.33
2019-02-04T05:50:39.064Z,20.03
2019-02-04T05:53:09.697Z,21.10
2019-02-04T05:56:00.837Z,20.30
2019-02-04T05:58:42.750Z,20.40
2019-02-04T06:01:13.234Z,20.53
2019-02-04T06:04:02.579Z,21.23
2019-02-04T06:06:44.142Z,20.37
2019-02-04T06:09:25.598Z,21.97
2019-02-04T06:12:07.899Z,21.90
2019-02-04T06:14:50.222Z,20.40
2019-02-04T06:17:32.330Z,20.87
2019-02-04T06:20:14.294Z,22.13
2019-02-04T06:22:56.290Z,21.80
2019-02-04T06:25:38.038Z,20.60
2019-02-04T06:28:20.997Z,21.63
2019-02-04T06:31:04.622Z,21.10
2019-02-04T06:33:46.497Z,20.83
2019-02-04T06:36:28.558Z,20.43
2019-02-04T06:39:10.992Z,21.43
2019-02-04T06:41:52.793Z,20.93
2019-02-04T06:44:34.815Z,20.97
2019-02-04T06:47:16.719Z,21.43
2019-02-04T06:49:58.813Z,22.40
2019-02-04T06:52:42.590Z,21.80
2019-02-04T06:55:24.494Z,20.77
2019-02-04T06:58:06.334Z,20.03
2019-02-04T07:00:48.313Z,22.00
2019-02-04T07:03:18.653Z,21.27
2019-02-04T07:06:00.488Z,21.07
2019-02-04T07:08:42.803Z,22.07
2019-02-04T07:11:24.650Z,21.70
2019-02-04T07:14:06.783Z,21.40
2019-02-04T07:16:48.814Z,21.70
2019-02-04T07:19:24.438Z,21.40
2019-02-04T07:22:10.268Z,20.77
2019-02-04T07:24:52.294Z,22.30
2019-02-04T07:27:33.884Z,21.93
2019-02-04T07:30:16.062Z,21.23
2019-02-04T07:32:58.190Z,21.20
2019-02-04T07:35:40.520Z,19.90
2019-02-04T07:38:24.474Z,20.53
2019-02-04T07:41:07.027Z,20.07
2019-02-04T07:43:49.332Z,21.50
2019-02-04T07:46:21.386Z,19.67
2019-02-04T07:49:10.692Z,20.57
2019-02-04T07:51:52.898Z,19.87
2019-02-04T07:54:34.941Z,19.70
2019-02-04T07:57:17.485Z,18.00
2019-02-04T07:59:59.794Z,18.93
2019-02-04T08:02:41.979Z,17.77
2019-02-04T08:05:12.297Z,17.60
2019-02-04T08:07:42.610Z,18.17
2019-02-04T08:10:31.307Z,17.03
2019-02-04T08:13:13.786Z,17.07
2019-02-04T08:15:56.745Z,17.40
2019-02-04T08:18:38.342Z,16.03
2019-02-04T08:21:20.592Z,17.10
2019-02-04T08:24:02.697Z,16.27
2019-02-04T08:26:44.785Z,16.53
2019-02-04T08:29:26.886Z,16.00
2019-02-04T08:32:08.680Z,15.90
2019-02-04T08:34:51.011Z,15.17
2019-02-04T08:37:32.953Z,15.93
2019-02-04T08:40:14.992Z,15.23
2019-02-04T08:42:57.499Z,14.83
2019-02-04T08:45:27.832Z,14.60
2019-02-04T08:48:09.452Z,13.70
2019-02-04T08:50:51.406Z,12.70
2019-02-04T08:53:33.331Z,12.83
2019-02-04T08:56:15.384Z,14.00
2019-02-04T08:58:56.939Z,12.83
2019-02-04T09:01:39.027Z,13.10
2019-02-04T09:04:21.412Z,12.63
2019-02-04T09:07:03.496Z,11.43
2019-02-04T09:09:45.786Z,12.40
2019-02-04T09:12:28.129Z,11.33
2019-02-04T09:15:11.299Z,11.33
2019-02-04T09:17:53.718Z,10.40
2019-02-04T09:20:35.931Z,9.47
2019-02-04T09:23:18.126Z,9.50
2019-02-04T09:26:00.473Z,9.83
2019-02-04T09:28:42.812Z,9.63
2019-02-04T09:31:24.959Z,9.83
2019-02-04T09:34:07.312Z,9.70
2019-02-04T09:36:49.311Z,9.33
2019-02-04T09:39:31.166Z,9.20
2019-02-04T09:42:13.053Z,8.10
2019-02-04T09:44:43.395Z,8.90
2019-02-04T09:47:32.871Z,8.30
2019-02-04T09:50:21.369Z,8.30
2019-02-04T09:52:58.582Z,8.10
2019-02-04T09:55:40.689Z,8.30
2019-02-04T09:58:22.698Z,7.43
2019-02-04T10:01:04.590Z,8.17
2019-02-04T10:03:46.702Z,8.10
2019-02-04T10:06:28.842Z,8.13
2019-02-04T10:09:11.006Z,8.57
2019-02-04T10:11:53.138Z,9.53
2019-02-04T10:14:34.934Z,10.03
2019-02-04T10:17:16.956Z,10.83
2019-02-04T10:19:59.188Z,11.00
2019-02-04T10:22:41.556Z,11.07
2019-02-04T10:25:23.438Z,11.73
2019-02-04T10:28:05.386Z,11.73
2019-02-04T10:30:47.790Z,11.00
2019-02-04T10:33:29.906Z,11.87
2019-02-04T10:36:11.757Z,11.97
2019-02-04T10:38:42.058Z,12.47
2019-02-04T10:41:25.904Z,12.37
2019-02-04T10:44:08.161Z,12.83
2019-02-04T10:46:53.005Z,12.30
2019-02-04T10:49:34.720Z,13.13
2019-02-04T10:52:16.949Z,12.63
2019-02-04T10:54:59.546Z,12.27
2019-02-04T10:57:41.871Z,11.97
2019-02-04T11:00:24.842Z,11.73
2019-02-04T11:03:07.151Z,11.63
2019-02-04T11:05:49.545Z,11.93
2019-02-04T11:08:32.938Z,10.83
2019-02-04T11:11:14.611Z,11.30
2019-02-04T11:13:56.511Z,10.67
2019-02-04T11:16:38.964Z,7.77
2019-02-04T11:19:21.053Z,7.57
2019-02-04T11:22:05.059Z,6.23
2019-02-04T11:24:47.511Z,5.63
2019-02-04T11:27:29.102Z,6.10
2019-02-04T11:30:11.379Z,5.93
2019-02-04T11:32:53.217Z,5.07
2019-02-04T11:35:35.764Z,5.63
2019-02-04T11:38:17.823Z,4.67
2019-02-04T11:40:59.854Z,4.87
2019-02-04T11:43:41.673Z,3.87
2019-02-04T11:46:23.392Z,4.43
2019-02-04T11:49:05.599Z,4.47
2019-02-04T11:51:47.491Z,3.83
2019-02-04T11:54:29.521Z,4.70
2019-02-04T11:57:13.385Z,4.20
2019-02-04T11:59:55.362Z,3.90
2019-02-04T12:02:36.939Z,3.90
2019-02-04T12:05:19.167Z,4.47
2019-02-04T12:07:49.646Z,4.10
2019-02-04T12:10:33.728Z,3.80
2019-02-04T12:13:15.646Z,4.00
2019-02-04T12:15:57.671Z,4.00
2019-02-04T12:18:39.944Z,3.93
2019-02-04T12:21:22.114Z,3.80
2019-02-04T12:24:05.982Z,4.07
2019-02-04T12:26:48.881Z,3.97
2019-02-04T12:29:30.627Z,4.10
2019-02-04T12:32:12.811Z,4.20
2019-02-04T12:34:55.080Z,3.93
2019-02-04T12:37:25.454Z,3.77
2019-02-04T12:40:07.752Z,3.87
2019-02-04T12:42:50.129Z,3.60
2019-02-04T12:45:32.131Z,3.70
2019-02-04T12:48:02.390Z,3.63
2019-02-04T12:50:32.640Z,3.20
2019-02-04T12:53:14.766Z,3.30
2019-02-04T12:55:56.714Z,3.57
2019-02-04T12:58:38.621Z,3.20
2019-02-04T13:01:20.578Z,3.10
2019-02-04T13:04:02.399Z,3.17
2019-02-04T13:06:46.873Z,2.80
2019-02-04T13:09:16.428Z,2.83
2019-02-04T13:11:58.606Z,3.00
2019-02-04T13:14:42.350Z,2.83
2019-02-04T13:17:26.843Z,2.80
2019-02-04T13:19:56.204Z,2.73
2019-02-04T13:22:38.005Z,2.40
2019-02-04T13:25:19.978Z,2.90
2019-02-04T13:28:01.888Z,2.83
2019-02-04T13:30:43.805Z,2.73
2019-02-04T13:33:25.918Z,2.47
2019-02-04T13:36:08.005Z,3.13
2019-02-04T13:38:50.016Z,2.27
2019-02-04T13:41:32.040Z,2.57
2019-02-04T13:44:04.053Z,2.80
2019-02-04T13:46:34.278Z,3.13
2019-02-04T13:49:16.785Z,2.50
2019-02-04T13:51:59.186Z,2.70
2019-02-04T13:54:41.381Z,2.80
2019-02-04T13:57:23.601Z,2.43
2019-02-04T14:00:05.794Z,2.37
2019-02-04T14:02:58.804Z,2.47
2019-02-04T14:05:32.426Z,2.90
2019-02-04T14:08:14.578Z,2.70
2019-02-04T14:10:56.497Z,2.60
2019-02-04T14:13:38.765Z,2.83
2019-02-04T14:16:21.150Z,2.43
2019-02-04T14:19:03.361Z,2.43
2019-02-04T14:21:45.755Z,2.60
2019-02-04T14:24:27.863Z,3.33
2019-02-04T14:27:10.110Z,2.80
2019-02-04T14:29:40.598Z,2.70
2019-02-04T14:32:29.891Z,2.53
2019-02-04T14:35:14.139Z,2.80
2019-02-04T14:37:55.820Z,2.70
2019-02-04T14:40:37.953Z,3.00
2019-02-04T14:43:18.869Z,2.80
2019-02-04T14:46:00.499Z,2.77
2019-02-04T14:48:43.342Z,2.60
2019-02-04T14:51:25.734Z,2.93
2019-02-04T14:54:07.694Z,3.17
2019-02-04T14:56:49.839Z,2.60
2019-02-04T14:59:31.810Z,3.13
2019-02-04T15:02:14.002Z,3.00
2019-02-04T15:04:56.066Z,3.00
2019-02-04T15:07:37.995Z,3.33
2019-02-04T15:10:20.077Z,3.17
2019-02-04T15:13:02.208Z,2.97
2019-02-04T15:15:44.284Z,2.50
2019-02-04T15:18:26.645Z,2.67
2019-02-04T15:21:08.853Z,2.93
2019-02-04T15:23:50.724Z,2.80
2019-02-04T15:26:34.682Z,3.07
2019-02-04T15:29:16.938Z,2.87
2019-02-04T15:31:58.846Z,2.93
2019-02-04T15:34:40.770Z,3.07
2019-02-04T15:37:22.555Z,3.10
2019-02-04T15:40:04.527Z,3.20
2019-02-04T15:42:46.611Z,2.70
2019-02-04T15:45:28.023Z,3.83
2019-02-04T15:48:10.330Z,2.80
2019-02-04T15:50:52.398Z,3.33
2019-02-04T15:53:22.691Z,2.70
2019-02-04T15:56:12.239Z,2.70
2019-02-04T15:58:53.924Z,2.73
2019-02-04T16:01:36.014Z,2.77
2019-02-04T16:04:18.166Z,3.00
2019-02-04T16:06:59.895Z,2.60
2019-02-04T16:09:41.949Z,3.03
2019-02-04T16:12:23.893Z,2.80
2019-02-04T16:15:07.524Z,2.77
2019-02-04T16:17:49.346Z,2.80
2019-02-04T16:20:31.410Z,2.93
2019-02-04T16:23:13.563Z,2.80
2019-02-04T16:25:56.870Z,3.00
2019-02-04T16:28:38.903Z,2.80
2019-02-04T16:31:20.793Z,3.13
2019-02-04T16:34:02.658Z,2.97
2019-02-04T16:36:44.806Z,3.00
2019-02-04T16:39:26.962Z,2.83
2019-02-04T16:42:08.861Z,2.93
2019-02-04T16:44:50.316Z,3.50
2019-02-04T16:47:20.642Z,2.70
2019-02-04T16:50:02.563Z,2.97
2019-02-04T16:52:44.802Z,3.40
2019-02-04T16:55:27.222Z,3.17
2019-02-04T16:58:09.508Z,3.10
2019-02-04T17:00:51.619Z,3.07
2019-02-04T17:03:22.343Z,3.30
2019-02-04T17:06:04.175Z,3.00
2019-02-04T17:08:46.430Z,3.77
2019-02-04T17:11:28.539Z,3.30
2019-02-04T17:14:10.544Z,3.97
2019-02-04T17:16:52.786Z,3.70
2019-02-04T17:19:23.587Z,3.80
2019-02-04T17:21:53.810Z,3.33
2019-02-04T17:24:24.212Z,4.27
2019-02-04T17:27:07.504Z,4.30
2019-02-04T17:29:37.810Z,3.83
2019-02-04T17:32:32.403Z,3.83
2019-02-04T17:35:14.624Z,4.27
2019-02-04T17:37:58.437Z,3.50
2019-02-04T17:40:44.719Z,4.10
2019-02-04T17:43:26.694Z,3.97
2019-02-04T17:46:08.658Z,3.77
2019-02-04T17:48:50.906Z,4.10
2019-02-04T17:51:32.858Z,4.13
2019-02-04T17:54:15.348Z,4.10
2019-02-04T17:56:59.129Z,4.27
2019-02-04T17:59:41.373Z,4.40
2019-02-04T18:02:23.893Z,4.63
2019-02-04T18:05:05.440Z,4.20
2019-02-04T18:07:47.231Z,4.70
2019-02-04T18:10:29.165Z,4.23
2019-02-04T18:13:10.759Z,4.00
2019-02-04T18:15:54.653Z,4.27
2019-02-04T18:18:36.639Z,4.60
2019-02-04T18:21:18.700Z,4.23
2019-02-04T18:24:00.888Z,4.30
2019-02-04T18:26:31.338Z,4.87
2019-02-04T18:29:13.722Z,3.90
2019-02-04T18:31:55.822Z,4.33
2019-02-04T18:34:38.148Z,5.00
2019-02-04T18:37:20.100Z,4.80
2019-02-04T18:40:02.380Z,5.00
2019-02-04T18:42:44.143Z,5.00
2019-02-04T18:45:26.657Z,5.33
2019-02-04T18:48:08.420Z,5.43
2019-02-04T18:50:51.223Z,5.87
2019-02-04T18:53:35.055Z,5.70
2019-02-04T18:56:17.018Z,5.60
2019-02-04T18:58:58.776Z,5.70
2019-02-04T19:01:41.215Z,6.40
2019-02-04T19:04:24.317Z,5.97
2019-02-04T19:07:06.625Z,5.30
2019-02-04T19:09:48.817Z,6.23
2019-02-04T19:12:32.320Z,5.60
2019-02-04T19:15:14.627Z,6.67
2019-02-04T19:17:56.913Z,6.03
2019-02-04T19:20:40.348Z,5.90
2019-02-04T19:23:22.543Z,6.10
2019-02-04T19:26:04.729Z,6.37
2019-02-04T19:28:46.888Z,6.20
2019-02-04T19:31:29.322Z,6.30
2019-02-04T19:34:13.347Z,6.30
2019-02-04T19:36:55.244Z,5.80
2019-02-04T19:39:37.500Z,6.00
2019-02-04T19:42:19.683Z,5.60
2019-02-04T19:47:42.571Z,6.13
2019-02-04T19:50:25.139Z,5.47
2019-02-04T19:53:07.406Z,5.73
2019-02-04T19:55:49.594Z,5.47
2019-02-04T19:58:33.506Z,5.83
2019-02-04T20:01:15.487Z,6.23
2019-02-04T20:03:57.630Z,6.30
2019-02-04T20:06:39.940Z,5.70
2019-02-04T20:09:22.148Z,5.93
2019-02-04T20:12:04.066Z,5.67
2019-02-04T20:14:46.701Z,5.57
2019-02-04T20:17:28.913Z,5.33
2019-02-04T20:20:10.995Z,5.70
2019-02-04T20:22:53.011Z,5.37
2019-02-04T20:25:34.567Z,6.20
2019-02-04T20:28:16.859Z,6.23
2019-02-04T20:30:58.554Z,5.73
2019-02-04T20:33:40.512Z,5.67
2019-02-04T20:36:22.770Z,6.30
2019-02-04T20:39:05.151Z,5.33
2019-02-04T20:41:48.040Z,5.80
2019-02-04T20:44:30.416Z,6.07
2019-02-04T20:47:12.847Z,6.17
2019-02-04T20:49:55.217Z,5.73
2019-02-04T20:52:37.267Z,5.57
2019-02-04T20:55:07.895Z,5.90
2019-02-04T20:57:57.312Z,5.63
2019-02-04T21:00:40.981Z,5.73
2019-02-04T21:03:22.844Z,6.13
2019-02-04T21:06:05.087Z,5.93
2019-02-04T21:08:47.606Z,5.60
2019-02-04T21:11:29.796Z,5.57
2019-02-04T21:14:11.751Z,5.97
2019-02-04T21:16:54.067Z,5.87
2019-02-04T21:19:36.531Z,6.07
2019-02-04T21:22:21.096Z,5.60
2019-02-04T21:25:03.282Z,5.43
2019-02-04T21:27:45.666Z,5.47
2019-02-04T21:30:27.745Z,5.90
2019-02-04T21:32:58.155Z,5.60
2019-02-04T21:35:41.349Z,5.33
2019-02-04T21:38:25.615Z,5.70
2019-02-04T21:41:07.669Z,5.33
2019-02-04T21:43:49.746Z,4.73
2019-02-04T21:46:31.804Z,5.13
2019-02-04T21:49:02.122Z,4.47
2019-02-04T21:51:44.602Z,5.23
2019-02-04T21:54:26.718Z,5.40
2019-02-04T21:57:09.959Z,5.57
2019-02-04T21:59:52.012Z,4.87
2019-02-04T22:02:22.679Z,4.73
2019-02-04T22:04:53.198Z,5.20
2019-02-04T22:07:35.203Z,4.83
2019-02-04T22:10:17.125Z,5.10
2019-02-04T22:13:00.238Z,5.40
2019-02-04T22:15:42.323Z,5.17
2019-02-04T22:21:27.382Z,4.93
2019-02-04T22:24:09.957Z,5.40
2019-02-04T22:26:52.098Z,5.30
2019-02-04T22:29:34.362Z,5.47
2019-02-04T22:32:05.222Z,4.60
2019-02-04T22:35:15.336Z,4.77
2019-02-04T22:37:56.938Z,5.47
2019-02-04T22:40:38.866Z,5.17
2019-02-04T22:43:20.786Z,4.83
2019-02-04T22:46:03.459Z,5.37
2019-02-04T22:48:45.707Z,5.00
2019-02-04T22:51:27.619Z,5.50
2019-02-04T22:54:09.887Z,5.17
2019-02-04T22:56:53.882Z,5.00
2019-02-04T22:59:35.938Z,5.43
2019-02-04T23:02:18.317Z,5.40
2019-02-04T23:05:00.624Z,4.73
2019-02-04T23:07:42.554Z,5.10
2019-02-04T23:10:25.098Z,4.57
2019-02-04T23:13:07.434Z,5.20
2019-02-04T23:15:49.931Z,5.40
2019-02-04T23:18:31.773Z,5.43
2019-02-04T23:21:14.682Z,5.10
2019-02-04T23:23:56.548Z,4.90
2019-02-04T23:26:38.174Z,5.37
2019-02-04T23:29:20.270Z,5.20
2019-02-04T23:32:02.154Z,5.80
2019-02-04T23:34:44.058Z,5.47
2019-02-04T23:37:26.023Z,4.80
2019-02-04T23:40:10.926Z,5.30
2019-02-04T23:42:52.949Z,5.57
2019-02-04T23:45:35.107Z,5.30
2019-02-04T23:48:16.979Z,5.13
2019-02-04T23:50:58.878Z,5.90
2019-02-04T23:53:40.712Z,6.10
2019-02-04T23:56:22.579Z,5.43
2019-02-04T23:59:04.514Z,4.53
